Mons, Belgium
Current Conditions -  °F | °C
As of 3:25 PM on Saturday 20 Dec 2014 (Local Time) from EBCV Reporting Station
Overcast Overcast  
Wind Chill: 40°   Ceiling: 4600
Heat Index: 46°   Visibility: 6mi
Dew Point: 37°   Wind: 15mph
Humidity: 71%   Direction: 280°W
Pressure: 30.24"   Gusts: NA
Location:  50.45°N, 3.97°E
Report Text: EBCV 201425Z AUTO 28013KT 9999 FEW036/// OVC046/// 08/03 Q1024 BLU
Loading
Personal Weather Stations






























Interactive Weather Map New forecast layout! Learn more

10-Day Weather Forecast

Advertisements
Track Severe Weather on mobile